sensor_id;sensor_type;location;lat;lon;timestamp;P1;durP1;ratioP1;P2;durP2;ratioP2
74363;SDS011;62797;49.740;10.154;2023-04-07T00:00:30;14.30;;;9.30;;
74363;SDS011;62797;49.740;10.154;2023-04-07T00:02:55;9.55;;;6.45;;
74363;SDS011;62797;49.740;10.154;2023-04-07T00:05:21;12.10;;;7.60;;
74363;SDS011;62797;49.740;10.154;2023-04-07T00:07:47;18.13;;;8.37;;
74363;SDS011;62797;49.740;10.154;2023-04-07T00:10:13;11.80;;;7.05;;
74363;SDS011;62797;49.740;10.154;2023-04-07T00:12:39;13.27;;;7.53;;
74363;SDS011;62797;49.740;10.154;2023-04-07T00:15:05;15.37;;;8.77;;
74363;SDS011;62797;49.740;10.154;2023-04-07T00:17:31;12.68;;;7.93;;
74363;SDS011;62797;49.740;10.154;2023-04-07T00:19:57;11.33;;;7.87;;
74363;SDS011;62797;49.740;10.154;2023-04-07T00:22:22;12.83;;;7.33;;
74363;SDS011;62797;49.740;10.154;2023-04-07T00:24:48;12.03;;;7.30;;
74363;SDS011;62797;49.740;10.154;2023-04-07T00:27:14;19.90;;;9.13;;
74363;SDS011;62797;49.740;10.154;2023-04-07T00:29:39;14.63;;;8.57;;
74363;SDS011;62797;49.740;10.154;2023-04-07T00:32:07;17.65;;;9.35;;
74363;SDS011;62797;49.740;10.154;2023-04-07T00:34:33;14.23;;;7.13;;
74363;SDS011;62797;49.740;10.154;2023-04-07T00:36:58;13.13;;;8.33;;
74363;SDS011;62797;49.740;10.154;2023-04-07T00:39:24;13.53;;;7.00;;
74363;SDS011;62797;49.740;10.154;2023-04-07T00:41:51;20.58;;;8.43;;
74363;SDS011;62797;49.740;10.154;2023-04-07T00:44:17;15.07;;;8.35;;
74363;SDS011;62797;49.740;10.154;2023-04-07T00:46:43;16.23;;;9.30;;
74363;SDS011;62797;49.740;10.154;2023-04-07T00:49:11;15.20;;;9.23;;
74363;SDS011;62797;49.740;10.154;2023-04-07T00:51:37;18.53;;;9.13;;
74363;SDS011;62797;49.740;10.154;2023-04-07T00:54:03;15.67;;;9.27;;
74363;SDS011;62797;49.740;10.154;2023-04-07T00:56:28;19.52;;;9.70;;
74363;SDS011;62797;49.740;10.154;2023-04-07T00:58:54;19.40;;;10.30;;
74363;SDS011;62797;49.740;10.154;2023-04-07T01:01:21;14.13;;;7.68;;
74363;SDS011;62797;49.740;10.154;2023-04-07T01:04:04;15.73;;;8.38;;
74363;SDS011;62797;49.740;10.154;2023-04-07T01:06:37;18.50;;;9.75;;
74363;SDS011;62797;49.740;10.154;2023-04-07T01:09:13;15.73;;;9.48;;
74363;SDS011;62797;49.740;10.154;2023-04-07T01:11:47;15.75;;;8.57;;
74363;SDS011;62797;49.740;10.154;2023-04-07T01:14:28;16.75;;;8.68;;
74363;SDS011;62797;49.740;10.154;2023-04-07T01:17:03;15.23;;;8.10;;
74363;SDS011;62797;49.740;10.154;2023-04-07T01:22:10;21.08;;;9.43;;
74363;SDS011;62797;49.740;10.154;2023-04-07T01:27:20;20.55;;;10.20;;
74363;SDS011;62797;49.740;10.154;2023-04-07T01:30:23;14.43;;;9.00;;
74363;SDS011;62797;49.740;10.154;2023-04-07T01:32:58;15.95;;;8.88;;
74363;SDS011;62797;49.740;10.154;2023-04-07T01:35:25;19.17;;;9.43;;
74363;SDS011;62797;49.740;10.154;2023-04-07T01:37:54;19.67;;;10.05;;
74363;SDS011;62797;49.740;10.154;2023-04-07T01:40:21;20.23;;;9.90;;
74363;SDS011;62797;49.740;10.154;2023-04-07T01:42:49;19.73;;;10.73;;
74363;SDS011;62797;49.740;10.154;2023-04-07T01:45:16;14.95;;;9.27;;
74363;SDS011;62797;49.740;10.154;2023-04-07T01:47:42;16.20;;;9.50;;
74363;SDS011;62797;49.740;10.154;2023-04-07T01:50:12;18.33;;;10.68;;
74363;SDS011;62797;49.740;10.154;2023-04-07T01:52:40;23.38;;;10.63;;
74363;SDS011;62797;49.740;10.154;2023-04-07T01:55:06;19.88;;;10.88;;
74363;SDS011;62797;49.740;10.154;2023-04-07T01:57:38;14.77;;;9.38;;
74363;SDS011;62797;49.740;10.154;2023-04-07T02:00:10;17.92;;;9.77;;
74363;SDS011;62797;49.740;10.154;2023-04-07T02:02:51;16.73;;;9.85;;
74363;SDS011;62797;49.740;10.154;2023-04-07T02:05:23;15.13;;;9.23;;
74363;SDS011;62797;49.740;10.154;2023-04-07T02:07:52;16.85;;;9.88;;
74363;SDS011;62797;49.740;10.154;2023-04-07T02:10:24;16.05;;;9.48;;
74363;SDS011;62797;49.740;10.154;2023-04-07T02:12:55;19.38;;;9.02;;
74363;SDS011;62797;49.740;10.154;2023-04-07T02:15:22;15.90;;;8.30;;
74363;SDS011;62797;49.740;10.154;2023-04-07T02:17:52;17.85;;;9.88;;
74363;SDS011;62797;49.740;10.154;2023-04-07T02:20:20;19.08;;;10.73;;
74363;SDS011;62797;49.740;10.154;2023-04-07T02:22:48;17.52;;;10.30;;
74363;SDS011;62797;49.740;10.154;2023-04-07T02:25:30;17.57;;;10.73;;
74363;SDS011;62797;49.740;10.154;2023-04-07T02:27:57;14.93;;;8.23;;
74363;SDS011;62797;49.740;10.154;2023-04-07T02:30:23;16.35;;;9.75;;
74363;SDS011;62797;49.740;10.154;2023-04-07T02:32:50;15.57;;;10.43;;
74363;SDS011;62797;49.740;10.154;2023-04-07T02:35:16;17.33;;;9.48;;
74363;SDS011;62797;49.740;10.154;2023-04-07T02:37:42;15.65;;;9.48;;
74363;SDS011;62797;49.740;10.154;2023-04-07T02:40:08;15.68;;;8.98;;
74363;SDS011;62797;49.740;10.154;2023-04-07T02:42:34;15.82;;;9.55;;
74363;SDS011;62797;49.740;10.154;2023-04-07T02:45:03;19.40;;;10.52;;
74363;SDS011;62797;49.740;10.154;2023-04-07T02:47:30;19.55;;;11.55;;
74363;SDS011;62797;49.740;10.154;2023-04-07T02:49:56;17.08;;;10.10;;
74363;SDS011;62797;49.740;10.154;2023-04-07T02:52:22;17.13;;;10.07;;
74363;SDS011;62797;49.740;10.154;2023-04-07T02:54:48;18.55;;;10.55;;
74363;SDS011;62797;49.740;10.154;2023-04-07T02:57:17;16.88;;;9.15;;
74363;SDS011;62797;49.740;10.154;2023-04-07T02:59:43;17.60;;;10.07;;
74363;SDS011;62797;49.740;10.154;2023-04-07T03:02:10;22.45;;;10.40;;
74363;SDS011;62797;49.740;10.154;2023-04-07T03:04:38;20.23;;;11.93;;
74363;SDS011;62797;49.740;10.154;2023-04-07T03:07:04;23.55;;;11.80;;
74363;SDS011;62797;49.740;10.154;2023-04-07T03:09:31;20.50;;;10.85;;
74363;SDS011;62797;49.740;10.154;2023-04-07T03:11:57;21.47;;;12.00;;
74363;SDS011;62797;49.740;10.154;2023-04-07T03:14:26;23.88;;;12.45;;
74363;SDS011;62797;49.740;10.154;2023-04-07T03:16:53;24.23;;;13.25;;
74363;SDS011;62797;49.740;10.154;2023-04-07T03:19:20;21.25;;;13.15;;
74363;SDS011;62797;49.740;10.154;2023-04-07T03:21:49;25.60;;;13.90;;
74363;SDS011;62797;49.740;10.154;2023-04-07T03:24:15;23.15;;;12.18;;
74363;SDS011;62797;49.740;10.154;2023-04-07T03:26:41;20.53;;;10.33;;
74363;SDS011;62797;49.740;10.154;2023-04-07T03:29:16;21.02;;;10.20;;
74363;SDS011;62797;49.740;10.154;2023-04-07T03:31:42;17.10;;;10.10;;
74363;SDS011;62797;49.740;10.154;2023-04-07T03:34:09;21.08;;;11.25;;
74363;SDS011;62797;49.740;10.154;2023-04-07T03:36:35;19.40;;;9.25;;
74363;SDS011;62797;49.740;10.154;2023-04-07T03:39:03;18.67;;;9.52;;
74363;SDS011;62797;49.740;10.154;2023-04-07T03:41:28;21.33;;;10.57;;
74363;SDS011;62797;49.740;10.154;2023-04-07T03:43:54;17.77;;;10.10;;
74363;SDS011;62797;49.740;10.154;2023-04-07T03:46:21;23.27;;;12.07;;
74363;SDS011;62797;49.740;10.154;2023-04-07T03:48:48;19.13;;;10.57;;
74363;SDS011;62797;49.740;10.154;2023-04-07T03:51:14;21.08;;;10.45;;
74363;SDS011;62797;49.740;10.154;2023-04-07T03:53:40;21.67;;;11.40;;
74363;SDS011;62797;49.740;10.154;2023-04-07T03:56:23;26.60;;;12.50;;
74363;SDS011;62797;49.740;10.154;2023-04-07T03:58:49;22.98;;;11.77;;
74363;SDS011;62797;49.740;10.154;2023-04-07T04:01:23;21.38;;;11.88;;
74363;SDS011;62797;49.740;10.154;2023-04-07T04:03:49;20.63;;;11.13;;
74363;SDS011;62797;49.740;10.154;2023-04-07T04:06:33;21.23;;;11.25;;
74363;SDS011;62797;49.740;10.154;2023-04-07T04:09:08;19.92;;;11.40;;
74363;SDS011;62797;49.740;10.154;2023-04-07T04:11:40;17.50;;;10.73;;
74363;SDS011;62797;49.740;10.154;2023-04-07T04:14:08;20.63;;;11.15;;
74363;SDS011;62797;49.740;10.154;2023-04-07T04:16:36;21.85;;;12.98;;
74363;SDS011;62797;49.740;10.154;2023-04-07T04:19:13;23.13;;;12.50;;
74363;SDS011;62797;49.740;10.154;2023-04-07T04:21:39;22.60;;;10.93;;
74363;SDS011;62797;49.740;10.154;2023-04-07T04:24:05;22.80;;;11.57;;
74363;SDS011;62797;49.740;10.154;2023-04-07T04:26:31;23.67;;;12.80;;
74363;SDS011;62797;49.740;10.154;2023-04-07T04:29:03;21.63;;;11.63;;
74363;SDS011;62797;49.740;10.154;2023-04-07T04:31:29;17.37;;;9.87;;
74363;SDS011;62797;49.740;10.154;2023-04-07T04:33:55;19.83;;;10.52;;
74363;SDS011;62797;49.740;10.154;2023-04-07T04:36:23;17.02;;;9.30;;
74363;SDS011;62797;49.740;10.154;2023-04-07T04:38:54;22.98;;;10.98;;
74363;SDS011;62797;49.740;10.154;2023-04-07T04:41:20;23.02;;;12.38;;
74363;SDS011;62797;49.740;10.154;2023-04-07T04:43:48;18.27;;;11.07;;
74363;SDS011;62797;49.740;10.154;2023-04-07T04:46:18;20.75;;;11.65;;
74363;SDS011;62797;49.740;10.154;2023-04-07T04:48:44;30.48;;;12.25;;
74363;SDS011;62797;49.740;10.154;2023-04-07T04:51:10;19.13;;;11.00;;
74363;SDS011;62797;49.740;10.154;2023-04-07T04:53:38;29.92;;;14.48;;
74363;SDS011;62797;49.740;10.154;2023-04-07T04:56:05;19.88;;;11.18;;
74363;SDS011;62797;49.740;10.154;2023-04-07T04:58:38;25.90;;;13.98;;
74363;SDS011;62797;49.740;10.154;2023-04-07T05:01:06;26.58;;;12.93;;
74363;SDS011;62797;49.740;10.154;2023-04-07T05:03:38;24.52;;;12.23;;
74363;SDS011;62797;49.740;10.154;2023-04-07T05:06:12;23.35;;;12.75;;
74363;SDS011;62797;49.740;10.154;2023-04-07T05:08:40;19.92;;;10.77;;
74363;SDS011;62797;49.740;10.154;2023-04-07T05:11:06;23.35;;;12.38;;
74363;SDS011;62797;49.740;10.154;2023-04-07T05:16:01;22.42;;;11.57;;
74363;SDS011;62797;49.740;10.154;2023-04-07T05:18:28;19.52;;;10.80;;
74363;SDS011;62797;49.740;10.154;2023-04-07T05:20:55;22.17;;;12.00;;
74363;SDS011;62797;49.740;10.154;2023-04-07T05:23:22;21.23;;;11.77;;
74363;SDS011;62797;49.740;10.154;2023-04-07T05:25:49;24.73;;;13.57;;
74363;SDS011;62797;49.740;10.154;2023-04-07T05:30:42;31.25;;;13.93;;
74363;SDS011;62797;49.740;10.154;2023-04-07T05:33:08;22.15;;;11.75;;
74363;SDS011;62797;49.740;10.154;2023-04-07T05:35:44;20.08;;;11.38;;
74363;SDS011;62797;49.740;10.154;2023-04-07T05:38:11;24.02;;;12.30;;
74363;SDS011;62797;49.740;10.154;2023-04-07T05:40:38;19.55;;;11.93;;
74363;SDS011;62797;49.740;10.154;2023-04-07T05:43:07;19.25;;;11.68;;
74363;SDS011;62797;49.740;10.154;2023-04-07T05:45:33;17.98;;;10.80;;
74363;SDS011;62797;49.740;10.154;2023-04-07T05:47:59;24.10;;;11.48;;
74363;SDS011;62797;49.740;10.154;2023-04-07T05:50:35;21.20;;;11.32;;
74363;SDS011;62797;49.740;10.154;2023-04-07T05:53:04;19.60;;;11.43;;
74363;SDS011;62797;49.740;10.154;2023-04-07T05:55:30;20.75;;;11.02;;
74363;SDS011;62797;49.740;10.154;2023-04-07T05:57:56;24.02;;;13.25;;
74363;SDS011;62797;49.740;10.154;2023-04-07T06:00:27;22.95;;;12.25;;
74363;SDS011;62797;49.740;10.154;2023-04-07T06:03:01;23.75;;;13.77;;
74363;SDS011;62797;49.740;10.154;2023-04-07T06:05:31;26.83;;;13.27;;
74363;SDS011;62797;49.740;10.154;2023-04-07T06:07:59;25.13;;;14.85;;
74363;SDS011;62797;49.740;10.154;2023-04-07T06:10:26;23.30;;;12.68;;
74363;SDS011;62797;49.740;10.154;2023-04-07T06:12:52;30.57;;;15.60;;
74363;SDS011;62797;49.740;10.154;2023-04-07T06:15:17;33.07;;;16.67;;
74363;SDS011;62797;49.740;10.154;2023-04-07T06:17:43;18.53;;;10.93;;
74363;SDS011;62797;49.740;10.154;2023-04-07T06:20:10;26.95;;;14.43;;
74363;SDS011;62797;49.740;10.154;2023-04-07T06:22:36;23.73;;;13.48;;
74363;SDS011;62797;49.740;10.154;2023-04-07T06:27:30;23.48;;;12.68;;
74363;SDS011;62797;49.740;10.154;2023-04-07T06:29:57;25.08;;;14.48;;
74363;SDS011;62797;49.740;10.154;2023-04-07T06:32:23;20.17;;;12.47;;
74363;SDS011;62797;49.740;10.154;2023-04-07T06:34:49;24.48;;;13.50;;
74363;SDS011;62797;49.740;10.154;2023-04-07T06:37:15;21.23;;;12.25;;
74363;SDS011;62797;49.740;10.154;2023-04-07T06:39:41;25.77;;;13.50;;
74363;SDS011;62797;49.740;10.154;2023-04-07T06:42:06;26.93;;;16.30;;
74363;SDS011;62797;49.740;10.154;2023-04-07T06:44:37;25.63;;;14.35;;
74363;SDS011;62797;49.740;10.154;2023-04-07T06:47:02;22.67;;;12.90;;
74363;SDS011;62797;49.740;10.154;2023-04-07T06:49:28;22.40;;;12.83;;
74363;SDS011;62797;49.740;10.154;2023-04-07T06:51:53;26.17;;;14.93;;
74363;SDS011;62797;49.740;10.154;2023-04-07T06:54:19;24.23;;;13.03;;
74363;SDS011;62797;49.740;10.154;2023-04-07T06:56:45;24.40;;;13.70;;
74363;SDS011;62797;49.740;10.154;2023-04-07T06:59:11;43.07;;;21.63;;
74363;SDS011;62797;49.740;10.154;2023-04-07T07:01:36;27.67;;;14.80;;
74363;SDS011;62797;49.740;10.154;2023-04-07T07:04:02;31.17;;;17.27;;
74363;SDS011;62797;49.740;10.154;2023-04-07T07:06:29;30.58;;;14.57;;
74363;SDS011;62797;49.740;10.154;2023-04-07T07:08:55;31.55;;;17.40;;
74363;SDS011;62797;49.740;10.154;2023-04-07T07:11:21;27.73;;;15.65;;
74363;SDS011;62797;49.740;10.154;2023-04-07T07:13:47;29.80;;;15.40;;
74363;SDS011;62797;49.740;10.154;2023-04-07T07:16:12;25.00;;;13.63;;
74363;SDS011;62797;49.740;10.154;2023-04-07T07:18:38;27.30;;;15.67;;
74363;SDS011;62797;49.740;10.154;2023-04-07T07:21:04;21.77;;;12.17;;
74363;SDS011;62797;49.740;10.154;2023-04-07T07:23:30;28.60;;;16.63;;
74363;SDS011;62797;49.740;10.154;2023-04-07T07:25:55;29.07;;;14.63;;
74363;SDS011;62797;49.740;10.154;2023-04-07T07:28:23;34.10;;;16.17;;
74363;SDS011;62797;49.740;10.154;2023-04-07T07:30:49;28.33;;;17.67;;
74363;SDS011;62797;49.740;10.154;2023-04-07T07:33:14;29.90;;;16.23;;
74363;SDS011;62797;49.740;10.154;2023-04-07T07:35:40;28.97;;;16.57;;
74363;SDS011;62797;49.740;10.154;2023-04-07T07:38:06;25.33;;;14.73;;
74363;SDS011;62797;49.740;10.154;2023-04-07T07:40:32;29.67;;;15.70;;
74363;SDS011;62797;49.740;10.154;2023-04-07T07:42:58;28.02;;;17.88;;
74363;SDS011;62797;49.740;10.154;2023-04-07T07:45:24;31.40;;;18.75;;
74363;SDS011;62797;49.740;10.154;2023-04-07T07:47:50;25.03;;;15.83;;
74363;SDS011;62797;49.740;10.154;2023-04-07T07:50:15;33.80;;;16.63;;
74363;SDS011;62797;49.740;10.154;2023-04-07T07:52:41;32.20;;;15.33;;
74363;SDS011;62797;49.740;10.154;2023-04-07T07:55:07;36.08;;;17.70;;
74363;SDS011;62797;49.740;10.154;2023-04-07T07:57:33;30.27;;;17.00;;
74363;SDS011;62797;49.740;10.154;2023-04-07T07:59:59;32.45;;;17.85;;
74363;SDS011;62797;49.740;10.154;2023-04-07T08:02:24;31.53;;;17.13;;
74363;SDS011;62797;49.740;10.154;2023-04-07T08:04:55;32.00;;;16.58;;
74363;SDS011;62797;49.740;10.154;2023-04-07T08:07:21;36.05;;;16.63;;
74363;SDS011;62797;49.740;10.154;2023-04-07T08:09:47;26.75;;;15.93;;
74363;SDS011;62797;49.740;10.154;2023-04-07T08:14:39;31.33;;;16.90;;
74363;SDS011;62797;49.740;10.154;2023-04-07T08:17:05;28.77;;;16.27;;
74363;SDS011;62797;49.740;10.154;2023-04-07T08:19:30;34.77;;;18.50;;
74363;SDS011;62797;49.740;10.154;2023-04-07T08:21:56;32.17;;;17.47;;
74363;SDS011;62797;49.740;10.154;2023-04-07T08:24:22;28.63;;;16.00;;
74363;SDS011;62797;49.740;10.154;2023-04-07T08:26:47;28.40;;;16.77;;
74363;SDS011;62797;49.740;10.154;2023-04-07T08:29:13;22.77;;;13.43;;
74363;SDS011;62797;49.740;10.154;2023-04-07T08:31:39;32.97;;;16.65;;
74363;SDS011;62797;49.740;10.154;2023-04-07T08:34:05;32.88;;;17.95;;
74363;SDS011;62797;49.740;10.154;2023-04-07T08:36:31;26.30;;;17.00;;
74363;SDS011;62797;49.740;10.154;2023-04-07T08:38:57;30.97;;;18.70;;
74363;SDS011;62797;49.740;10.154;2023-04-07T08:41:32;28.55;;;16.25;;
74363;SDS011;62797;49.740;10.154;2023-04-07T08:44:06;29.17;;;17.00;;
74363;SDS011;62797;49.740;10.154;2023-04-07T08:46:33;27.75;;;17.10;;
74363;SDS011;62797;49.740;10.154;2023-04-07T08:49:00;25.67;;;16.20;;
74363;SDS011;62797;49.740;10.154;2023-04-07T08:51:27;31.98;;;16.08;;
74363;SDS011;62797;49.740;10.154;2023-04-07T08:53:59;28.23;;;15.60;;
74363;SDS011;62797;49.740;10.154;2023-04-07T08:59:01;21.25;;;12.55;;
74363;SDS011;62797;49.740;10.154;2023-04-07T09:01:29;28.63;;;16.25;;
74363;SDS011;62797;49.740;10.154;2023-04-07T09:03:56;29.23;;;14.55;;
74363;SDS011;62797;49.740;10.154;2023-04-07T09:06:23;25.58;;;14.90;;
74363;SDS011;62797;49.740;10.154;2023-04-07T09:08:49;26.63;;;14.45;;
74363;SDS011;62797;49.740;10.154;2023-04-07T09:11:15;28.92;;;15.65;;
74363;SDS011;62797;49.740;10.154;2023-04-07T09:13:40;36.00;;;15.47;;
74363;SDS011;62797;49.740;10.154;2023-04-07T09:16:06;24.95;;;15.95;;
74363;SDS011;62797;49.740;10.154;2023-04-07T09:18:32;24.60;;;14.83;;
74363;SDS011;62797;49.740;10.154;2023-04-07T09:21:02;24.70;;;13.77;;
74363;SDS011;62797;49.740;10.154;2023-04-07T09:23:33;24.60;;;15.18;;
74363;SDS011;62797;49.740;10.154;2023-04-07T09:26:01;23.05;;;14.13;;
74363;SDS011;62797;49.740;10.154;2023-04-07T09:28:51;23.83;;;14.82;;
74363;SDS011;62797;49.740;10.154;2023-04-07T09:31:42;25.58;;;15.55;;
74363;SDS011;62797;49.740;10.154;2023-04-07T09:34:31;27.30;;;16.17;;
74363;SDS011;62797;49.740;10.154;2023-04-07T09:37:01;27.88;;;16.63;;
74363;SDS011;62797;49.740;10.154;2023-04-07T09:39:28;23.80;;;15.13;;
74363;SDS011;62797;49.740;10.154;2023-04-07T09:41:55;23.38;;;13.70;;
74363;SDS011;62797;49.740;10.154;2023-04-07T09:44:21;23.60;;;15.50;;
74363;SDS011;62797;49.740;10.154;2023-04-07T09:46:49;25.00;;;13.82;;
74363;SDS011;62797;49.740;10.154;2023-04-07T09:49:15;25.85;;;15.25;;
74363;SDS011;62797;49.740;10.154;2023-04-07T09:51:57;26.80;;;15.00;;
74363;SDS011;62797;49.740;10.154;2023-04-07T09:54:37;21.67;;;13.93;;
74363;SDS011;62797;49.740;10.154;2023-04-07T09:57:08;24.33;;;15.20;;
74363;SDS011;62797;49.740;10.154;2023-04-07T09:59:37;24.17;;;15.90;;
74363;SDS011;62797;49.740;10.154;2023-04-07T10:02:03;23.08;;;13.02;;
74363;SDS011;62797;49.740;10.154;2023-04-07T10:04:30;24.08;;;13.18;;
74363;SDS011;62797;49.740;10.154;2023-04-07T10:06:57;19.60;;;12.88;;
74363;SDS011;62797;49.740;10.154;2023-04-07T10:09:27;23.08;;;14.73;;
74363;SDS011;62797;49.740;10.154;2023-04-07T10:11:54;21.45;;;13.70;;
74363;SDS011;62797;49.740;10.154;2023-04-07T10:14:22;24.52;;;14.40;;
74363;SDS011;62797;49.740;10.154;2023-04-07T10:16:50;20.25;;;12.77;;
74363;SDS011;62797;49.740;10.154;2023-04-07T10:19:16;22.40;;;14.68;;
74363;SDS011;62797;49.740;10.154;2023-04-07T10:21:44;22.27;;;13.25;;
74363;SDS011;62797;49.740;10.154;2023-04-07T10:27:03;20.33;;;11.95;;
74363;SDS011;62797;49.740;10.154;2023-04-07T10:29:33;19.17;;;12.60;;
74363;SDS011;62797;49.740;10.154;2023-04-07T10:32:01;18.92;;;12.30;;
74363;SDS011;62797;49.740;10.154;2023-04-07T10:37:13;18.58;;;12.63;;
74363;SDS011;62797;49.740;10.154;2023-04-07T10:39:41;19.60;;;11.80;;
74363;SDS011;62797;49.740;10.154;2023-04-07T10:45:02;17.00;;;11.20;;
74363;SDS011;62797;49.740;10.154;2023-04-07T10:47:31;16.85;;;11.15;;
74363;SDS011;62797;49.740;10.154;2023-04-07T10:50:16;20.58;;;12.00;;
74363;SDS011;62797;49.740;10.154;2023-04-07T10:53:08;18.15;;;11.13;;
74363;SDS011;62797;49.740;10.154;2023-04-07T10:58:20;18.83;;;10.98;;
74363;SDS011;62797;49.740;10.154;2023-04-07T11:03:22;19.52;;;12.70;;
74363;SDS011;62797;49.740;10.154;2023-04-07T11:05:48;16.95;;;11.32;;
74363;SDS011;62797;49.740;10.154;2023-04-07T11:08:14;16.73;;;10.73;;
74363;SDS011;62797;49.740;10.154;2023-04-07T11:10:40;14.20;;;9.68;;
74363;SDS011;62797;49.740;10.154;2023-04-07T11:13:12;17.10;;;10.60;;
74363;SDS011;62797;49.740;10.154;2023-04-07T11:15:37;17.83;;;12.43;;
74363;SDS011;62797;49.740;10.154;2023-04-07T11:18:13;16.17;;;10.80;;
74363;SDS011;62797;49.740;10.154;2023-04-07T11:23:13;21.77;;;12.65;;
74363;SDS011;62797;49.740;10.154;2023-04-07T11:25:41;18.02;;;11.10;;
74363;SDS011;62797;49.740;10.154;2023-04-07T11:28:08;18.33;;;11.25;;
74363;SDS011;62797;49.740;10.154;2023-04-07T11:30:36;20.05;;;13.02;;
74363;SDS011;62797;49.740;10.154;2023-04-07T11:33:02;19.75;;;11.60;;
74363;SDS011;62797;49.740;10.154;2023-04-07T11:35:28;15.80;;;10.37;;
74363;SDS011;62797;49.740;10.154;2023-04-07T11:37:59;16.33;;;10.27;;
74363;SDS011;62797;49.740;10.154;2023-04-07T11:40:30;16.60;;;10.63;;
74363;SDS011;62797;49.740;10.154;2023-04-07T11:43:00;17.45;;;11.05;;
74363;SDS011;62797;49.740;10.154;2023-04-07T11:45:27;19.98;;;13.80;;
74363;SDS011;62797;49.740;10.154;2023-04-07T11:47:53;17.30;;;10.77;;
74363;SDS011;62797;49.740;10.154;2023-04-07T11:53:04;15.40;;;10.25;;
74363;SDS011;62797;49.740;10.154;2023-04-07T11:55:29;18.10;;;10.30;;
74363;SDS011;62797;49.740;10.154;2023-04-07T11:58:04;14.50;;;9.65;;
74363;SDS011;62797;49.740;10.154;2023-04-07T12:00:31;18.17;;;11.00;;
74363;SDS011;62797;49.740;10.154;2023-04-07T12:02:56;15.83;;;10.27;;
74363;SDS011;62797;49.740;10.154;2023-04-07T12:05:43;17.67;;;9.52;;
74363;SDS011;62797;49.740;10.154;2023-04-07T12:08:09;14.25;;;10.70;;
74363;SDS011;62797;49.740;10.154;2023-04-07T12:10:35;16.65;;;10.52;;
74363;SDS011;62797;49.740;10.154;2023-04-07T12:13:04;20.48;;;11.90;;
74363;SDS011;62797;49.740;10.154;2023-04-07T12:15:31;17.20;;;10.32;;
74363;SDS011;62797;49.740;10.154;2023-04-07T12:17:56;14.83;;;10.33;;
74363;SDS011;62797;49.740;10.154;2023-04-07T12:20:22;14.30;;;9.00;;
74363;SDS011;62797;49.740;10.154;2023-04-07T12:22:47;13.93;;;9.37;;
74363;SDS011;62797;49.740;10.154;2023-04-07T12:25:13;17.13;;;9.63;;
74363;SDS011;62797;49.740;10.154;2023-04-07T12:27:39;14.93;;;10.20;;
74363;SDS011;62797;49.740;10.154;2023-04-07T12:30:04;16.00;;;10.47;;
74363;SDS011;62797;49.740;10.154;2023-04-07T12:32:31;17.55;;;11.35;;
74363;SDS011;62797;49.740;10.154;2023-04-07T12:34:57;15.80;;;10.25;;
74363;SDS011;62797;49.740;10.154;2023-04-07T12:37:22;14.00;;;9.53;;
74363;SDS011;62797;49.740;10.154;2023-04-07T12:39:48;14.50;;;9.17;;
74363;SDS011;62797;49.740;10.154;2023-04-07T12:42:14;15.20;;;10.87;;
74363;SDS011;62797;49.740;10.154;2023-04-07T12:44:39;17.33;;;11.33;;
74363;SDS011;62797;49.740;10.154;2023-04-07T12:47:05;14.43;;;9.18;;
74363;SDS011;62797;49.740;10.154;2023-04-07T12:49:31;11.97;;;8.80;;
74363;SDS011;62797;49.740;10.154;2023-04-07T12:51:56;12.53;;;9.30;;
74363;SDS011;62797;49.740;10.154;2023-04-07T12:54:22;12.77;;;9.20;;
74363;SDS011;62797;49.740;10.154;2023-04-07T12:56:48;12.30;;;9.00;;
74363;SDS011;62797;49.740;10.154;2023-04-07T12:59:14;11.38;;;6.85;;
74363;SDS011;62797;49.740;10.154;2023-04-07T13:01:40;11.23;;;8.10;;
74363;SDS011;62797;49.740;10.154;2023-04-07T13:04:05;13.10;;;9.20;;
74363;SDS011;62797;49.740;10.154;2023-04-07T13:06:34;17.58;;;9.73;;
74363;SDS011;62797;49.740;10.154;2023-04-07T13:08:59;12.18;;;9.35;;
74363;SDS011;62797;49.740;10.154;2023-04-07T13:11:25;12.93;;;8.93;;
74363;SDS011;62797;49.740;10.154;2023-04-07T13:13:52;13.90;;;7.77;;
74363;SDS011;62797;49.740;10.154;2023-04-07T13:16:18;18.08;;;9.55;;
74363;SDS011;62797;49.740;10.154;2023-04-07T13:18:43;17.10;;;8.40;;
74363;SDS011;62797;49.740;10.154;2023-04-07T13:21:09;13.30;;;8.47;;
74363;SDS011;62797;49.740;10.154;2023-04-07T13:23:35;13.90;;;9.20;;
74363;SDS011;62797;49.740;10.154;2023-04-07T13:26:00;15.27;;;8.10;;
74363;SDS011;62797;49.740;10.154;2023-04-07T13:28:26;11.82;;;7.50;;
74363;SDS011;62797;49.740;10.154;2023-04-07T13:30:52;13.23;;;8.77;;
74363;SDS011;62797;49.740;10.154;2023-04-07T13:33:18;13.83;;;8.87;;
74363;SDS011;62797;49.740;10.154;2023-04-07T13:35:43;10.97;;;8.20;;
74363;SDS011;62797;49.740;10.154;2023-04-07T13:38:09;12.73;;;8.67;;
74363;SDS011;62797;49.740;10.154;2023-04-07T13:40:35;15.97;;;8.07;;
74363;SDS011;62797;49.740;10.154;2023-04-07T13:43:00;12.53;;;8.67;;
74363;SDS011;62797;49.740;10.154;2023-04-07T13:45:26;10.27;;;7.63;;
74363;SDS011;62797;49.740;10.154;2023-04-07T13:47:52;14.07;;;8.87;;
74363;SDS011;62797;49.740;10.154;2023-04-07T13:52:44;11.02;;;6.53;;
74363;SDS011;62797;49.740;10.154;2023-04-07T13:55:10;10.13;;;6.40;;
74363;SDS011;62797;49.740;10.154;2023-04-07T13:57:36;9.00;;;6.90;;
74363;SDS011;62797;49.740;10.154;2023-04-07T14:00:02;10.27;;;7.03;;
74363;SDS011;62797;49.740;10.154;2023-04-07T14:02:34;9.88;;;7.05;;
74363;SDS011;62797;49.740;10.154;2023-04-07T14:04:59;8.93;;;6.37;;
74363;SDS011;62797;49.740;10.154;2023-04-07T14:07:25;8.97;;;6.17;;
74363;SDS011;62797;49.740;10.154;2023-04-07T14:09:50;8.53;;;6.17;;
74363;SDS011;62797;49.740;10.154;2023-04-07T14:12:18;8.77;;;6.85;;
74363;SDS011;62797;49.740;10.154;2023-04-07T14:14:45;9.68;;;6.63;;
74363;SDS011;62797;49.740;10.154;2023-04-07T14:17:14;7.13;;;5.45;;
74363;SDS011;62797;49.740;10.154;2023-04-07T14:19:40;7.88;;;6.13;;
74363;SDS011;62797;49.740;10.154;2023-04-07T14:22:06;9.02;;;6.53;;
74363;SDS011;62797;49.740;10.154;2023-04-07T14:24:31;9.07;;;6.07;;
74363;SDS011;62797;49.740;10.154;2023-04-07T14:26:57;11.68;;;8.10;;
74363;SDS011;62797;49.740;10.154;2023-04-07T14:29:25;8.32;;;6.88;;
74363;SDS011;62797;49.740;10.154;2023-04-07T14:31:51;6.97;;;4.75;;
74363;SDS011;62797;49.740;10.154;2023-04-07T14:34:17;14.67;;;5.87;;
74363;SDS011;62797;49.740;10.154;2023-04-07T14:36:51;8.05;;;6.53;;
74363;SDS011;62797;49.740;10.154;2023-04-07T14:39:18;7.43;;;5.60;;
74363;SDS011;62797;49.740;10.154;2023-04-07T14:41:44;8.50;;;5.88;;
74363;SDS011;62797;49.740;10.154;2023-04-07T14:44:11;11.13;;;5.28;;
74363;SDS011;62797;49.740;10.154;2023-04-07T14:46:37;7.75;;;5.43;;
74363;SDS011;62797;49.740;10.154;2023-04-07T14:49:03;7.65;;;5.85;;
74363;SDS011;62797;49.740;10.154;2023-04-07T14:51:29;12.00;;;6.38;;
74363;SDS011;62797;49.740;10.154;2023-04-07T14:53:55;9.53;;;6.97;;
74363;SDS011;62797;49.740;10.154;2023-04-07T14:58:48;10.73;;;6.30;;